createdAt,value
2017-08-12T00:01:38.554Z,29.10
2017-08-12T00:04:06.124Z,24.53
2017-08-12T00:06:33.722Z,30.70
2017-08-12T00:09:01.283Z,27.30
2017-08-12T00:11:28.850Z,27.83
2017-08-12T00:13:56.541Z,27.67
2017-08-12T00:16:24.109Z,38.27
2017-08-12T00:18:52.454Z,27.73
2017-08-12T00:21:20.182Z,27.33
2017-08-12T00:23:47.807Z,30.77
2017-08-12T00:26:15.471Z,30.43
2017-08-12T00:28:43.029Z,23.30
2017-08-12T00:31:10.630Z,31.10
2017-08-12T00:33:38.188Z,26.07
2017-08-12T00:36:05.770Z,25.07
2017-08-12T00:38:33.358Z,22.30
2017-08-12T00:41:00.926Z,24.70
2017-08-12T00:43:28.529Z,24.37
2017-08-12T00:45:56.118Z,25.80
2017-08-12T00:48:23.721Z,21.60
2017-08-12T00:50:51.293Z,18.40
2017-08-12T00:53:19.638Z,21.93
2017-08-12T00:55:47.295Z,16.40
2017-08-12T00:58:14.899Z,18.60
2017-08-12T01:00:43.265Z,20.60
2017-08-12T01:03:10.837Z,14.93
2017-08-12T01:05:38.426Z,19.47
2017-08-12T01:08:06.002Z,18.43
2017-08-12T01:10:33.562Z,24.87
2017-08-12T01:13:01.135Z,24.87
2017-08-12T01:15:28.698Z,20.40
2017-08-12T01:17:56.278Z,21.30
2017-08-12T01:20:23.837Z,21.87
2017-08-12T01:22:51.491Z,20.37
2017-08-12T01:25:19.077Z,22.13
2017-08-12T01:27:47.432Z,24.90
2017-08-12T01:30:15.049Z,24.13
2017-08-12T01:32:42.613Z,24.47
2017-08-12T01:35:10.169Z,23.93
2017-08-12T01:37:37.774Z,19.90
2017-08-12T01:40:05.381Z,22.40
2017-08-12T01:42:33.732Z,25.03
2017-08-12T01:45:01.293Z,24.03
2017-08-12T01:47:28.865Z,24.17
2017-08-12T01:49:57.338Z,26.97
2017-08-12T01:52:24.922Z,30.50
2017-08-12T01:54:53.245Z,26.80
2017-08-12T01:57:20.822Z,26.87
2017-08-12T01:59:48.399Z,28.27
2017-08-12T02:02:15.997Z,29.80
2017-08-12T02:04:43.573Z,26.90
2017-08-12T02:07:11.217Z,31.00
2017-08-12T02:09:38.797Z,27.83
2017-08-12T02:12:06.348Z,33.03
2017-08-12T02:14:33.946Z,32.93
2017-08-12T02:17:01.526Z,34.27
2017-08-12T02:19:29.077Z,29.70
2017-08-12T02:21:56.654Z,32.87
2017-08-12T02:24:24.236Z,34.93
2017-08-12T02:26:52.567Z,45.00
2017-08-12T02:29:20.144Z,31.53
2017-08-12T02:31:47.737Z,32.10
2017-08-12T02:34:15.324Z,36.20
2017-08-12T02:36:42.887Z,35.40
2017-08-12T02:39:10.481Z,31.13
2017-08-12T02:41:38.052Z,34.50
2017-08-12T02:44:05.610Z,40.40
2017-08-12T02:46:33.215Z,38.40
2017-08-12T02:49:00.778Z,36.00
2017-08-12T02:51:28.374Z,39.50
2017-08-12T02:53:55.939Z,40.03
2017-08-12T02:56:23.521Z,38.03
2017-08-12T02:58:51.106Z,40.97
2017-08-12T03:01:19.451Z,38.73
2017-08-12T03:03:47.133Z,37.27
2017-08-12T03:06:15.490Z,32.83
2017-08-12T03:08:43.092Z,33.77
2017-08-12T03:11:10.670Z,36.23
2017-08-12T03:13:38.257Z,35.50
2017-08-12T03:16:05.830Z,38.73
2017-08-12T03:18:33.394Z,38.30
2017-08-12T03:21:01.054Z,39.30
2017-08-12T03:23:28.631Z,36.47
2017-08-12T03:25:56.193Z,35.20
2017-08-12T03:28:23.785Z,39.40
2017-08-12T03:30:52.112Z,35.73
2017-08-12T03:33:19.666Z,31.03
2017-08-12T03:35:47.240Z,36.93
2017-08-12T03:38:14.818Z,35.40
2017-08-12T03:40:42.407Z,35.47
2017-08-12T03:43:09.961Z,32.00
2017-08-12T03:45:37.652Z,35.13
2017-08-12T03:48:05.218Z,35.60
2017-08-12T03:50:32.822Z,35.93
2017-08-12T03:53:00.390Z,34.57
2017-08-12T03:55:27.945Z,38.27
2017-08-12T03:57:55.575Z,38.23
2017-08-12T04:00:23.126Z,31.07
2017-08-12T04:02:50.885Z,34.80
2017-08-12T04:05:18.445Z,35.60
2017-08-12T04:07:46.015Z,34.60
2017-08-12T04:10:13.590Z,29.27
2017-08-12T04:12:41.170Z,31.30
2017-08-12T04:15:08.750Z,30.33
2017-08-12T04:17:37.083Z,30.73
2017-08-12T04:20:04.665Z,28.13
2017-08-12T04:22:32.238Z,30.97
2017-08-12T04:24:59.806Z,32.50
2017-08-12T04:27:28.166Z,30.83
2017-08-12T04:29:55.734Z,29.77
2017-08-12T04:32:23.441Z,27.83
2017-08-12T04:34:51.019Z,31.23
2017-08-12T04:37:18.599Z,33.20
2017-08-12T04:39:46.172Z,30.30
2017-08-12T04:42:13.773Z,29.73
2017-08-12T04:44:41.326Z,34.83
2017-08-12T04:47:09.650Z,34.20
2017-08-12T04:49:37.268Z,30.30
2017-08-12T04:52:05.654Z,29.93
2017-08-12T04:54:33.257Z,24.57
2017-08-12T04:57:00.838Z,24.07
2017-08-12T04:59:28.412Z,26.17
2017-08-12T05:01:55.987Z,25.70
2017-08-12T05:04:24.333Z,21.23
2017-08-12T05:06:51.901Z,25.53
2017-08-12T05:09:19.477Z,18.80
2017-08-12T05:11:47.833Z,22.50
2017-08-12T05:14:15.395Z,18.23
2017-08-12T05:16:43.111Z,19.90
2017-08-12T05:19:10.666Z,17.63
2017-08-12T05:21:38.259Z,17.77
2017-08-12T05:24:05.816Z,22.13
2017-08-12T05:26:33.388Z,22.57
2017-08-12T05:29:00.969Z,19.70
2017-08-12T05:31:28.538Z,18.60
2017-08-12T05:33:56.099Z,19.73
2017-08-12T05:36:23.678Z,21.93
2017-08-12T05:38:51.998Z,19.23
2017-08-12T05:41:19.580Z,19.83
2017-08-12T05:43:47.173Z,19.60
2017-08-12T05:46:15.494Z,20.63
2017-08-12T05:48:43.097Z,15.50
2017-08-12T05:51:10.663Z,20.20
2017-08-12T05:53:38.250Z,24.87
2017-08-12T05:56:05.834Z,19.57
2017-08-12T05:58:33.469Z,19.40
2017-08-12T06:01:01.042Z,17.00
2017-08-12T06:03:28.614Z,22.30
2017-08-12T06:05:56.196Z,23.07
2017-08-12T06:08:23.794Z,20.67
2017-08-12T06:10:51.373Z,16.83
2017-08-12T06:13:18.958Z,22.33
2017-08-12T06:15:46.546Z,19.53
2017-08-12T06:18:14.139Z,16.87
2017-08-12T06:20:41.831Z,21.23
2017-08-12T06:23:09.423Z,25.00
2017-08-12T06:25:37.006Z,20.30
2017-08-12T06:28:04.578Z,19.70
2017-08-12T06:30:32.142Z,29.93
2017-08-12T06:32:59.730Z,22.53
2017-08-12T06:35:27.426Z,23.90
2017-08-12T06:37:54.994Z,21.03
2017-08-12T06:40:22.592Z,20.33
2017-08-12T06:42:50.186Z,21.70
2017-08-12T06:45:17.746Z,24.50
2017-08-12T06:47:46.034Z,23.30
2017-08-12T06:50:13.604Z,26.90
2017-08-12T06:52:41.166Z,24.07
2017-08-12T06:55:08.766Z,24.30
2017-08-12T06:57:36.324Z,25.83
2017-08-12T07:00:03.911Z,23.20
2017-08-12T07:02:32.277Z,25.40
2017-08-12T07:04:59.858Z,26.60
2017-08-12T07:07:27.458Z,31.00
2017-08-12T07:09:55.942Z,28.77
2017-08-12T07:12:23.521Z,25.63
2017-08-12T07:14:51.182Z,23.57
2017-08-12T07:17:18.794Z,24.43
2017-08-12T07:19:46.395Z,26.70
2017-08-12T07:22:13.994Z,33.17
2017-08-12T07:24:41.587Z,24.70
2017-08-12T07:27:09.154Z,27.47
2017-08-12T07:29:36.747Z,28.77
2017-08-12T07:32:04.346Z,30.23
2017-08-12T07:34:31.910Z,28.10
2017-08-12T07:37:00.266Z,26.27
2017-08-12T07:39:27.846Z,26.13
2017-08-12T07:41:56.225Z,24.17
2017-08-12T07:44:23.779Z,29.60
2017-08-12T07:46:52.109Z,27.53
2017-08-12T07:49:19.703Z,27.30
2017-08-12T07:51:47.278Z,28.00
2017-08-12T07:54:14.844Z,28.53
2017-08-12T07:56:43.206Z,24.73
2017-08-12T07:59:10.784Z,25.70
2017-08-12T08:01:38.345Z,31.10
2017-08-12T08:04:05.935Z,31.30
2017-08-12T08:06:33.498Z,23.70
2017-08-12T08:09:01.090Z,29.13
2017-08-12T08:11:28.659Z,30.03
2017-08-12T08:13:56.253Z,26.37
2017-08-12T08:16:23.845Z,28.30
2017-08-12T08:18:51.410Z,28.53
2017-08-12T08:21:18.986Z,27.83
2017-08-12T08:23:46.559Z,27.47
2017-08-12T08:26:14.145Z,31.23
2017-08-12T08:28:41.730Z,31.27
2017-08-12T08:31:09.302Z,24.77
2017-08-12T08:33:36.903Z,27.10
2017-08-12T08:36:04.466Z,26.40
2017-08-12T08:38:32.029Z,25.17
2017-08-12T08:40:59.625Z,25.00
2017-08-12T08:43:27.946Z,24.70
2017-08-12T08:45:55.525Z,23.43
2017-08-12T08:48:23.109Z,23.30
2017-08-12T08:50:50.690Z,25.00
2017-08-12T08:53:19.066Z,22.67
2017-08-12T08:55:47.399Z,23.10
2017-08-12T08:58:14.977Z,24.93
2017-08-12T09:00:42.535Z,17.77
2017-08-12T09:03:10.126Z,21.20
2017-08-12T09:05:37.696Z,27.00
2017-08-12T09:08:05.289Z,20.30
2017-08-12T09:10:32.891Z,16.97
2017-08-12T09:13:00.459Z,20.47
2017-08-12T09:15:28.049Z,17.70
2017-08-12T09:17:55.674Z,17.33
2017-08-12T09:20:23.287Z,18.97
2017-08-12T09:22:50.887Z,21.50
2017-08-12T09:25:18.474Z,19.73
2017-08-12T09:27:46.819Z,16.87
2017-08-12T09:30:14.398Z,17.10
2017-08-12T09:32:41.993Z,18.33
2017-08-12T09:35:11.218Z,16.67
2017-08-12T09:37:38.822Z,16.70
2017-08-12T09:40:07.595Z,15.37
2017-08-12T09:42:35.150Z,17.57
2017-08-12T09:45:02.744Z,16.70
2017-08-12T09:47:31.073Z,14.60
2017-08-12T09:49:58.655Z,13.50
2017-08-12T09:52:27.616Z,12.30
2017-08-12T09:54:55.270Z,12.23
2017-08-12T09:57:22.846Z,9.77
2017-08-12T09:59:50.398Z,11.70
2017-08-12T10:02:17.983Z,13.53
2017-08-12T10:04:45.564Z,10.17
2017-08-12T10:07:13.118Z,9.20
2017-08-12T10:09:40.682Z,11.60
2017-08-12T10:12:08.255Z,8.90
2017-08-12T10:14:35.827Z,10.70
2017-08-12T10:17:04.181Z,9.47
2017-08-12T10:19:31.839Z,7.90
2017-08-12T10:21:59.409Z,7.23
2017-08-12T10:24:26.985Z,6.17
2017-08-12T10:26:55.339Z,5.67
2017-08-12T10:29:22.896Z,6.20
2017-08-12T10:31:50.467Z,5.37
2017-08-12T10:34:18.035Z,5.00
2017-08-12T10:36:45.633Z,4.93
2017-08-12T10:39:13.254Z,3.50
2017-08-12T10:41:40.820Z,4.67
2017-08-12T10:44:08.400Z,3.60
2017-08-12T10:46:35.966Z,2.43
2017-08-12T10:49:03.504Z,2.77
2017-08-12T10:51:31.109Z,3.00
2017-08-12T10:53:58.695Z,1.97
2017-08-12T10:56:26.266Z,2.00
2017-08-12T10:58:53.836Z,2.90
2017-08-12T11:01:21.406Z,2.20
2017-08-12T11:03:48.981Z,1.70
2017-08-12T11:06:17.327Z,1.80
2017-08-12T11:08:44.917Z,2.13
2017-08-12T11:11:12.486Z,2.53
2017-08-12T11:13:40.841Z,2.20
2017-08-12T11:16:08.414Z,1.80
2017-08-12T11:18:36.049Z,2.37
2017-08-12T11:21:03.639Z,2.20
2017-08-12T11:23:31.208Z,1.80
2017-08-12T11:25:59.554Z,1.90
2017-08-12T11:28:27.310Z,2.57
2017-08-12T11:30:54.888Z,3.80
2017-08-12T11:33:22.481Z,2.77
2017-08-12T11:35:50.062Z,3.97
2017-08-12T11:38:17.636Z,2.07
2017-08-12T11:40:45.201Z,4.30
2017-08-12T11:43:12.806Z,2.83
2017-08-12T11:45:40.397Z,2.27
2017-08-12T11:48:07.955Z,6.03
2017-08-12T11:50:35.551Z,9.37
2017-08-12T11:53:03.109Z,3.83
2017-08-12T11:55:30.700Z,7.70
2017-08-12T11:57:58.367Z,5.13
2017-08-12T12:00:25.934Z,2.37
2017-08-12T12:02:53.507Z,2.93
2017-08-12T12:05:21.858Z,2.20
2017-08-12T12:07:49.423Z,2.50
2017-08-12T12:10:17.013Z,3.27
2017-08-12T12:12:45.345Z,2.60
2017-08-12T12:15:13.011Z,8.10
2017-08-12T12:17:40.609Z,2.70
2017-08-12T12:20:08.936Z,2.77
2017-08-12T12:22:36.487Z,4.20
2017-08-12T12:25:04.105Z,3.10
2017-08-12T12:27:31.675Z,3.30
2017-08-12T12:29:59.240Z,5.10
2017-08-12T12:32:26.805Z,4.70
2017-08-12T12:34:54.365Z,3.90
2017-08-12T12:37:21.933Z,6.73
2017-08-12T12:39:49.512Z,8.27
2017-08-12T12:42:17.099Z,4.87
2017-08-12T12:44:44.686Z,4.30
2017-08-12T12:47:12.314Z,5.63
2017-08-12T12:49:39.882Z,5.87
2017-08-12T12:52:07.440Z,5.87
2017-08-12T12:54:35.007Z,9.83
2017-08-12T12:57:05.233Z,10.93
2017-08-12T12:59:32.813Z,9.93
2017-08-12T13:02:00.369Z,11.93
2017-08-12T13:04:27.966Z,11.83
2017-08-12T13:06:55.542Z,10.30
2017-08-12T13:09:23.134Z,14.00
2017-08-12T13:11:50.720Z,14.60
2017-08-12T13:14:18.389Z,14.93
2017-08-12T13:16:46.025Z,12.93
2017-08-12T13:19:13.603Z,12.70
2017-08-12T13:21:41.183Z,13.10
2017-08-12T13:24:08.758Z,14.30
2017-08-12T13:26:36.326Z,10.90
2017-08-12T13:29:03.906Z,11.57
2017-08-12T13:31:31.472Z,12.80
2017-08-12T13:33:59.079Z,14.93
2017-08-12T13:36:26.717Z,12.70
2017-08-12T13:38:54.281Z,11.97
2017-08-12T13:41:21.890Z,12.97
2017-08-12T13:43:49.449Z,12.40
2017-08-12T13:46:17.014Z,13.70
2017-08-12T13:48:44.591Z,13.07
2017-08-12T13:51:12.197Z,12.37
2017-08-12T13:53:39.762Z,12.30
2017-08-12T13:56:07.330Z,11.23
2017-08-12T13:58:35.686Z,12.13
2017-08-12T14:01:03.254Z,14.00
2017-08-12T14:03:30.834Z,13.63
2017-08-12T14:05:59.164Z,12.33
2017-08-12T14:08:26.746Z,15.63
2017-08-12T14:10:54.315Z,12.60
2017-08-12T14:13:21.897Z,12.87
2017-08-12T14:15:49.491Z,13.23
2017-08-12T14:18:17.073Z,11.27
2017-08-12T14:20:44.666Z,10.77
2017-08-12T14:23:12.237Z,9.97
2017-08-12T14:25:39.849Z,9.20
2017-08-12T14:28:07.402Z,10.10
2017-08-12T14:30:34.975Z,11.13
2017-08-12T14:33:02.572Z,13.33
2017-08-12T14:35:30.143Z,10.23
2017-08-12T14:37:57.709Z,9.10
2017-08-12T14:40:25.417Z,8.73
2017-08-12T14:42:52.993Z,8.17
2017-08-12T14:45:20.614Z,10.90
2017-08-12T14:47:48.185Z,7.57
2017-08-12T14:50:15.765Z,11.40
2017-08-12T14:52:43.328Z,8.57
2017-08-12T14:55:10.887Z,7.30
2017-08-12T14:57:38.489Z,7.57
2017-08-12T15:00:06.104Z,8.83
2017-08-12T15:02:33.711Z,9.07
2017-08-12T15:05:01.279Z,6.93
2017-08-12T15:07:29.643Z,6.97
2017-08-12T15:09:57.230Z,8.87
2017-08-12T15:12:24.822Z,9.40
2017-08-12T15:14:52.390Z,7.60
2017-08-12T15:17:20.055Z,6.47
2017-08-12T15:19:47.622Z,6.27
2017-08-12T15:22:15.207Z,8.33
2017-08-12T15:24:42.787Z,7.67
2017-08-12T15:27:10.359Z,6.93
2017-08-12T15:32:05.504Z,7.53
2017-08-12T15:34:33.091Z,6.47
2017-08-12T15:37:00.682Z,6.33
2017-08-12T15:39:28.238Z,7.53
2017-08-12T15:41:55.909Z,7.60
2017-08-12T15:44:23.504Z,8.07
2017-08-12T15:46:51.121Z,6.10
2017-08-12T15:49:18.670Z,8.07
2017-08-12T15:51:46.234Z,7.60
2017-08-12T15:54:13.849Z,7.00
2017-08-12T15:56:41.449Z,7.10
2017-08-12T15:59:09.044Z,7.40
2017-08-12T16:01:37.411Z,6.80
2017-08-12T16:04:04.972Z,6.97
2017-08-12T16:06:32.555Z,11.80
2017-08-12T16:09:00.149Z,8.80
2017-08-12T16:11:27.706Z,7.47
2017-08-12T16:13:55.290Z,7.60
2017-08-12T16:16:22.861Z,9.70
2017-08-12T16:18:50.444Z,10.20
2017-08-12T16:21:18.038Z,6.97
2017-08-12T16:23:45.626Z,8.33
2017-08-12T16:26:13.239Z,7.30
2017-08-12T16:28:41.560Z,8.03
2017-08-12T16:31:09.147Z,8.87
2017-08-12T16:33:36.721Z,7.90
2017-08-12T16:36:04.297Z,8.33
2017-08-12T16:38:31.878Z,7.33
2017-08-12T16:41:00.239Z,6.60
2017-08-12T16:43:27.807Z,9.53
2017-08-12T16:45:56.129Z,7.33
2017-08-12T16:48:23.773Z,8.00
2017-08-12T16:50:51.373Z,8.87
2017-08-12T16:53:18.925Z,6.17
2017-08-12T16:55:46.514Z,7.57
2017-08-12T16:58:14.077Z,6.30
2017-08-12T17:00:41.674Z,7.90
2017-08-12T17:03:09.257Z,6.67
2017-08-12T17:05:36.855Z,6.97
2017-08-12T17:08:05.207Z,7.77
2017-08-12T17:10:32.798Z,9.93
2017-08-12T17:13:00.374Z,7.50
2017-08-12T17:15:28.723Z,10.10
2017-08-12T17:17:56.408Z,8.70
2017-08-12T17:20:24.739Z,9.67
2017-08-12T17:22:52.300Z,7.13
2017-08-12T17:25:19.871Z,8.40
2017-08-12T17:27:47.479Z,9.73
2017-08-12T17:30:15.072Z,10.83
2017-08-12T17:32:42.637Z,8.67
2017-08-12T17:35:10.198Z,9.57
2017-08-12T17:37:37.771Z,8.67
2017-08-12T17:40:05.354Z,10.73
2017-08-12T17:42:32.961Z,10.97
2017-08-12T17:45:00.535Z,10.40
2017-08-12T17:47:28.112Z,12.57
2017-08-12T17:49:55.690Z,11.70
2017-08-12T17:52:23.296Z,11.83
2017-08-12T17:54:50.866Z,13.70
2017-08-12T17:57:18.481Z,11.20
2017-08-12T17:59:46.089Z,12.10
2017-08-12T18:02:13.666Z,12.70
2017-08-12T18:04:41.242Z,12.20
2017-08-12T18:07:08.835Z,11.40
2017-08-12T18:09:36.399Z,11.23
2017-08-12T18:12:04.002Z,12.07
2017-08-12T18:14:31.601Z,12.27
2017-08-12T18:16:59.194Z,10.33
2017-08-12T18:19:27.623Z,11.47
2017-08-12T18:21:55.265Z,10.50
2017-08-12T18:24:22.831Z,9.43
2017-08-12T18:26:50.395Z,10.83
2017-08-12T18:29:17.977Z,11.00
2017-08-12T18:31:45.568Z,10.50
2017-08-12T18:34:13.129Z,10.73
2017-08-12T18:36:40.746Z,11.10
2017-08-12T18:39:08.386Z,11.80
2017-08-12T18:41:35.945Z,10.70
2017-08-12T18:44:03.532Z,11.70
2017-08-12T18:46:31.134Z,10.10
2017-08-12T18:48:58.753Z,10.90
2017-08-12T18:51:26.347Z,10.37
2017-08-12T18:53:53.951Z,9.80
2017-08-12T18:56:21.558Z,10.70
2017-08-12T18:58:49.151Z,13.03
2017-08-12T19:01:16.730Z,10.90
2017-08-12T19:03:44.341Z,11.00
2017-08-12T19:06:11.934Z,11.80
2017-08-12T19:08:39.535Z,14.63
2017-08-12T19:11:07.094Z,10.70
2017-08-12T19:13:34.675Z,14.27
2017-08-12T19:16:02.247Z,13.27
2017-08-12T19:18:29.899Z,14.20
2017-08-12T19:20:57.460Z,14.87
2017-08-12T19:23:25.053Z,18.80
2017-08-12T19:25:52.656Z,15.97
2017-08-12T19:28:20.221Z,17.93
2017-08-12T19:30:47.787Z,17.30
2017-08-12T19:33:15.387Z,17.20
2017-08-12T19:35:43.039Z,14.97
2017-08-12T19:38:10.669Z,17.07
2017-08-12T19:40:38.277Z,17.73
2017-08-12T19:43:05.822Z,16.73
2017-08-12T19:45:33.430Z,19.30
2017-08-12T19:48:01.051Z,18.40
2017-08-12T19:50:28.632Z,18.90
2017-08-12T19:52:56.191Z,20.37
2017-08-12T19:55:23.786Z,20.53
2017-08-12T19:57:52.109Z,19.97
2017-08-12T20:00:19.715Z,22.10
2017-08-12T20:02:47.313Z,20.60
2017-08-12T20:05:14.885Z,20.87
2017-08-12T20:07:42.473Z,19.03
2017-08-12T20:10:10.046Z,18.20
2017-08-12T20:12:37.666Z,16.33
2017-08-12T20:15:05.242Z,18.70
2017-08-12T20:17:32.820Z,16.17
2017-08-12T20:20:00.450Z,13.07
2017-08-12T20:22:28.056Z,14.30
2017-08-12T20:24:56.506Z,12.40
2017-08-12T20:27:24.074Z,12.53
2017-08-12T20:29:51.665Z,11.77
2017-08-12T20:32:20.003Z,12.93
2017-08-12T20:34:47.607Z,11.07
2017-08-12T20:37:15.959Z,11.90
2017-08-12T20:39:43.528Z,12.03
2017-08-12T20:42:11.182Z,11.97
2017-08-12T20:44:38.734Z,10.20
2017-08-12T20:47:06.317Z,12.83
2017-08-12T20:49:33.899Z,13.83
2017-08-12T20:52:01.480Z,10.43
2017-08-12T20:54:29.062Z,10.63
2017-08-12T20:56:56.641Z,10.93
2017-08-12T20:59:24.257Z,9.27
2017-08-12T21:01:51.802Z,9.37
2017-08-12T21:04:19.371Z,9.10
2017-08-12T21:06:46.966Z,11.83
2017-08-12T21:09:14.541Z,10.53
2017-08-12T21:11:42.145Z,9.97
2017-08-12T21:14:10.486Z,8.30
2017-08-12T21:16:38.046Z,8.13
2017-08-12T21:19:05.642Z,10.60
2017-08-12T21:21:33.978Z,8.80
2017-08-12T21:24:01.552Z,9.73
2017-08-12T21:26:29.118Z,8.03
2017-08-12T21:28:56.657Z,7.93
2017-08-12T21:31:24.226Z,7.77
2017-08-12T21:33:51.795Z,7.20
2017-08-12T21:36:19.366Z,8.70
2017-08-12T21:38:46.928Z,8.90
2017-08-12T21:41:14.517Z,9.20
2017-08-12T21:43:42.110Z,11.27
2017-08-12T21:46:09.690Z,8.70
2017-08-12T21:48:37.262Z,9.83
2017-08-12T21:51:04.841Z,10.43
2017-08-12T21:53:32.417Z,10.07
2017-08-12T21:56:00.003Z,11.80
2017-08-12T21:58:27.660Z,10.13
2017-08-12T22:00:55.248Z,12.27
2017-08-12T22:03:22.826Z,11.00
2017-08-12T22:05:50.412Z,13.50
2017-08-12T22:08:18.740Z,14.00
2017-08-12T22:10:46.339Z,11.83
2017-08-12T22:13:13.922Z,14.67
2017-08-12T22:15:41.537Z,16.17
2017-08-12T22:18:09.103Z,12.67
2017-08-12T22:20:36.682Z,12.30
2017-08-12T22:23:04.249Z,14.30
2017-08-12T22:25:31.824Z,16.00
2017-08-12T22:28:00.177Z,13.50
2017-08-12T22:30:27.753Z,14.37
2017-08-12T22:32:55.301Z,12.70
2017-08-12T22:35:22.890Z,16.40
2017-08-12T22:37:51.236Z,13.77
2017-08-12T22:40:18.830Z,13.30
2017-08-12T22:42:46.431Z,13.60
2017-08-12T22:45:13.991Z,14.97
2017-08-12T22:47:41.614Z,15.30
2017-08-12T22:50:09.213Z,15.03
2017-08-12T22:52:36.806Z,16.90
2017-08-12T22:55:04.385Z,15.50
2017-08-12T22:57:32.761Z,14.10
2017-08-12T23:00:00.313Z,15.03
2017-08-12T23:02:27.877Z,12.43
2017-08-12T23:04:55.498Z,12.70
2017-08-12T23:07:23.081Z,12.23
2017-08-12T23:09:50.662Z,15.40
2017-08-12T23:12:18.223Z,12.80
2017-08-12T23:14:45.794Z,13.10
2017-08-12T23:17:14.136Z,12.70
2017-08-12T23:19:41.705Z,12.07
2017-08-12T23:22:09.434Z,11.70
2017-08-12T23:24:37.030Z,13.50
2017-08-12T23:27:04.607Z,14.20
2017-08-12T23:29:32.191Z,12.73
2017-08-12T23:31:59.769Z,10.43
2017-08-12T23:34:27.333Z,16.37
2017-08-12T23:36:54.931Z,14.83
2017-08-12T23:39:22.482Z,10.97
2017-08-12T23:41:50.073Z,11.63
2017-08-12T23:44:17.634Z,12.67
2017-08-12T23:46:45.237Z,12.23
2017-08-12T23:49:12.797Z,13.93
2017-08-12T23:51:40.410Z,12.13
2017-08-12T23:54:07.981Z,12.00
2017-08-12T23:56:35.553Z,12.00
2017-08-12T23:59:03.909Z,14.00
